This is the latest recevied weather packets stored in our database for station/object IR3AS. If no packets are shown the sender has not sent any weather packets the latest 10 day(s).
| Time | Temp. | Humidity | Pressure | Rain* | Wind** | Luminosity | Snow |
|---|---|---|---|---|---|---|---|
| 1787506509 | 12.78° C | 80% | 868.6 hPa | 0 mm | - | - | - |
| 1787506209 | 12.78° C | 80% | 868.7 hPa | 0 mm | - | - | - |
| 1787505909 | 12.78° C | 80% | 868.9 hPa | 0 mm | - | - | - |
| 1787505609 | 12.78° C | 79% | 868.8 hPa | 0 mm | - | - | - |
| 1787505309 | 12.78° C | 78% | 869 hPa | 0 mm | - | - | - |
| 1787505009 | 13.33° C | 77% | 869.1 hPa | 0 mm | - | - | - |
| 1787504710 | 13.33° C | 76% | 869.3 hPa | 0 mm | - | - | - |
| 1787504409 | 13.33° C | 77% | 869.3 hPa | 0 mm | - | - | - |
| 1787504110 | 12.78° C | 76% | 869.1 hPa | 0 mm | - | - | - |
| 1787503810 | 13.33° C | 73% | 869.3 hPa | 0 mm | - | - | - |
| 1787503510 | 13.89° C | 72% | 869.3 hPa | 0 mm | - | - | - |
| 1787503210 | 14.44° C | 71% | 869.4 hPa | 0 mm | - | - | - |
| 1787502947 | 15° C | 69% | 869.5 hPa | 0 mm | - | - | - |
| 1787502910 | 15° C | 69% | 869.5 hPa | 0 mm | - | - | - |
| 1787502610 | 16.67° C | 67% | 869.1 hPa | 0 mm | - | - | - |
| 1787502310 | 17.78° C | 68% | 868.8 hPa | 0 mm | - | - | - |
| 1787502010 | 17.22° C | 71% | 869 hPa | 0 mm | - | - | - |
| 1787501710 | 16.11° C | 74% | 869 hPa | 0 mm | - | - | - |
| 1787501410 | 15° C | 74% | 869.4 hPa | 0 mm | - | - | - |
| 1787501110 | 14.44° C | 72% | 869.7 hPa | 0 mm | - | - | - |
| 1787500810 | 14.44° C | 72% | 869.8 hPa | 0 mm | - | - | - |
| 1787500510 | 14.44° C | 72% | 869.4 hPa | 0 mm | - | - | - |
| 1787500210 | 14.44° C | 71% | 869.4 hPa | 0 mm | - | - | - |
| 1787499910 | 15° C | 70% | 868.8 hPa | 0 mm | - | - | - |
| 1787499610 | 15.56° C | 70% | 868.5 hPa | 0 mm | - | - | - |
* Rain latest hour (hover to see other rain measurements)
** Current wind speed in m/s (hover to see current wind gust speed)